Time;durP1;ratioP1;P1;durP2;ratioP2;P2;SDS_P1;SDS_P2;PMS_P1;PMS_P2;Temp;Humidity;BMP_temperature;BMP_pressure;BME280_temperature;BME280_humidity;BME280_pressure;Samples;Min_cycle;Max_cycle;Signal;HPM_P1;HPM_P2
2022/11/24 00:00:49;;;;;;;16.83;6.60;;;7.50;99.90;;;;;;4959223;28;20041;-93
2022/11/24 00:03:17;;;;;;;16.67;7.20;;;7.40;99.90;;;;;;4959449;28;20114;-93
2022/11/24 00:05:42;;;;;;;16.08;7.38;;;7.40;99.90;;;;;;4958702;28;20089;-92
2022/11/24 00:08:08;;;;;;;18.92;11.50;;;7.40;99.90;;;;;;4947691;28;20098;-91
2022/11/24 00:10:34;;;;;;;21.40;12.43;;;7.50;99.90;;;;;;4953885;28;20061;-94
2022/11/24 00:13:00;;;;;;;20.05;7.90;;;7.50;99.90;;;;;;4938407;28;20317;-92
2022/11/24 00:15:25;;;;;;;17.73;7.50;;;7.40;99.90;;;;;;4960901;28;20050;-92
2022/11/24 00:17:51;;;;;;;15.35;6.78;;;7.30;99.90;;;;;;4944324;28;20066;-94
2022/11/24 00:20:17;;;;;;;17.73;6.95;;;7.30;99.90;;;;;;4934295;28;20073;-92
2022/11/24 00:22:42;;;;;;;14.32;6.82;;;7.30;99.90;;;;;;4938823;28;20074;-92
2022/11/24 00:25:08;;;;;;;16.27;5.85;;;7.20;99.90;;;;;;4939366;28;20048;-92
2022/11/24 00:27:34;;;;;;;18.33;7.65;;;7.20;99.90;;;;;;4931668;28;20515;-92
2022/11/24 00:29:59;;;;;;;15.38;7.43;;;7.20;99.90;;;;;;4932189;28;20062;-93
2022/11/24 00:32:29;;;;;;;21.23;7.50;;;7.30;99.90;;;;;;4942305;28;20035;-93
2022/11/24 00:34:55;;;;;;;19.80;10.38;;;7.20;99.90;;;;;;4963113;28;20117;-92
2022/11/24 00:37:20;;;;;;;16.70;6.65;;;7.20;99.90;;;;;;4958332;28;20078;-93
2022/11/24 00:39:46;;;;;;;15.40;6.80;;;7.30;99.90;;;;;;4935040;28;20046;-93
2022/11/24 00:42:13;;;;;;;18.83;6.32;;;7.20;99.90;;;;;;4932947;28;20109;-92
2022/11/24 00:44:39;;;;;;;16.50;6.25;;;7.20;99.90;;;;;;4940833;28;20391;-92
2022/11/24 00:47:05;;;;;;;18.20;6.05;;;7.20;99.90;;;;;;4971939;28;20054;-93
2022/11/24 00:49:30;;;;;;;16.25;6.18;;;7.20;99.90;;;;;;4944155;28;20039;-93
2022/11/24 00:51:56;;;;;;;13.75;5.53;;;7.20;99.90;;;;;;4976634;28;20506;-93
2022/11/24 00:54:22;;;;;;;14.52;5.38;;;7.20;99.90;;;;;;4955017;28;20045;-95
2022/11/24 00:56:48;;;;;;;16.55;6.03;;;7.20;99.90;;;;;;4959098;28;20038;-94
2022/11/24 00:59:13;;;;;;;19.13;6.65;;;7.10;99.90;;;;;;4951730;28;20058;-93
2022/11/24 01:01:40;;;;;;;21.80;9.40;;;7.10;99.90;;;;;;4959473;28;20045;-94
2022/11/24 01:04:06;;;;;;;17.80;6.30;;;7.20;99.90;;;;;;4947547;28;20039;-93
2022/11/24 01:06:34;;;;;;;20.65;5.50;;;7.20;99.90;;;;;;4960716;28;20126;-94
2022/11/24 01:08:59;;;;;;;20.25;4.63;;;7.20;99.90;;;;;;4937475;28;20069;-93
2022/11/24 01:11:28;;;;;;;13.60;4.60;;;7.20;99.90;;;;;;4938979;28;20039;-93
2022/11/24 01:13:58;;;;;;;17.80;8.50;;;7.20;99.90;;;;;;4944150;28;20039;-94
2022/11/24 01:16:29;;;;;;;14.30;5.15;;;7.40;99.90;;;;;;4939077;28;20066;-92
2022/11/24 01:18:56;;;;;;;18.10;5.57;;;7.30;99.90;;;;;;4960515;28;20043;-92
2022/11/24 01:21:22;;;;;;;19.50;5.97;;;7.20;99.90;;;;;;4942234;28;20030;-93
2022/11/24 01:23:48;;;;;;;18.30;5.68;;;7.20;99.90;;;;;;4939879;28;20034;-92
2022/11/24 01:26:19;;;;;;;15.73;4.57;;;7.20;99.90;;;;;;4935679;28;20058;-93
2022/11/24 01:28:45;;;;;;;15.95;5.05;;;7.30;99.90;;;;;;4938816;28;20051;-92
2022/11/24 01:31:11;;;;;;;18.45;4.38;;;7.30;99.90;;;;;;4929990;28;20377;-92
2022/11/24 01:33:37;;;;;;;18.25;5.57;;;7.20;99.90;;;;;;4952743;28;20043;-94
2022/11/24 01:36:04;;;;;;;18.35;5.32;;;7.20;99.90;;;;;;4936202;28;20039;-92
2022/11/24 01:38:30;;;;;;;18.42;4.50;;;7.20;99.90;;;;;;4957479;28;20106;-93
2022/11/24 01:41:11;;;;;;;23.98;7.70;;;7.20;99.90;;;;;;4938077;28;20322;-92
2022/11/24 01:43:37;;;;;;;18.33;5.18;;;7.30;99.90;;;;;;4958232;28;20217;-93
2022/11/24 01:46:31;;;;;;;19.13;5.25;;;7.30;99.90;;;;;;4939067;28;20043;-92
2022/11/24 01:49:03;;;;;;;15.18;4.40;;;7.30;99.90;;;;;;4950678;28;20046;-93
2022/11/24 01:51:32;;;;;;;20.50;5.35;;;7.30;99.90;;;;;;4964595;28;20150;-93
2022/11/24 01:54:24;;;;;;;20.08;5.03;;;7.30;99.90;;;;;;4962926;28;20043;-92
2022/11/24 01:56:54;;;;;;;21.52;5.40;;;7.30;99.90;;;;;;4962559;28;20051;-93
2022/11/24 01:59:21;;;;;;;19.75;4.90;;;7.30;99.90;;;;;;4978402;28;20038;-93
2022/11/24 02:01:49;;;;;;;20.15;6.70;;;7.30;99.90;;;;;;4943546;28;20373;-92
2022/11/24 02:04:18;;;;;;;17.90;4.65;;;7.30;99.90;;;;;;4947258;28;20399;-93
2022/11/24 02:06:46;;;;;;;18.38;4.72;;;7.30;99.90;;;;;;4964648;28;20122;-92
2022/11/24 02:09:50;;;;;;;14.65;4.72;;;7.20;99.90;;;;;;4980212;28;20069;-92
2022/11/24 02:12:16;;;;;;;17.10;4.70;;;7.20;99.90;;;;;;4963603;28;20130;-92
2022/11/24 02:14:43;;;;;;;17.55;4.93;;;7.20;99.90;;;;;;4943913;28;20089;-92
2022/11/24 02:17:09;;;;;;;19.05;4.32;;;7.20;99.90;;;;;;4936607;29;20071;-92
2022/11/24 02:19:35;;;;;;;17.63;4.40;;;7.10;99.90;;;;;;4949059;28;20390;-92
2022/11/24 02:22:01;;;;;;;20.85;6.88;;;7.20;99.90;;;;;;4934800;28;20043;-92
2022/11/24 02:24:40;;;;;;;24.17;6.70;;;7.20;99.90;;;;;;4952916;28;20039;-92
2022/11/24 02:27:05;;;;;;;17.95;5.40;;;7.20;99.90;;;;;;4942086;28;20419;-93
2022/11/24 02:29:31;;;;;;;19.08;4.57;;;7.20;99.90;;;;;;4930200;28;20178;-91
2022/11/24 02:32:02;;;;;;;15.68;3.90;;;7.10;99.90;;;;;;4940785;28;20133;-92
2022/11/24 02:34:27;;;;;;;17.87;4.47;;;7.10;99.90;;;;;;4954113;28;20039;-91
2022/11/24 02:36:53;;;;;;;13.73;3.83;;;7.20;99.90;;;;;;4933792;28;20169;-92
2022/11/24 02:39:19;;;;;;;17.70;4.85;;;7.10;99.90;;;;;;4975295;28;20125;-93
2022/11/24 02:41:53;;;;;;;20.95;4.13;;;7.10;99.90;;;;;;4947333;28;20035;-93
2022/11/24 02:44:21;;;;;;;20.08;5.47;;;7.20;99.90;;;;;;4952656;28;20047;-93
2022/11/24 02:46:46;;;;;;;15.80;3.72;;;7.20;99.90;;;;;;4952906;28;20113;-93
2022/11/24 02:49:12;;;;;;;16.67;4.88;;;7.10;99.90;;;;;;4944903;28;20047;-93
2022/11/24 02:51:38;;;;;;;19.20;4.32;;;7.10;99.90;;;;;;4931611;28;20842;-92
2022/11/24 02:54:03;;;;;;;18.33;4.18;;;7.10;99.90;;;;;;4928968;28;20077;-92
2022/11/24 02:56:29;;;;;;;17.90;4.78;;;7.10;99.90;;;;;;4937115;28;20126;-93
2022/11/24 02:58:55;;;;;;;17.02;4.75;;;7.10;99.90;;;;;;4956984;28;20053;-93
2022/11/24 03:01:20;;;;;;;17.98;3.83;;;7.10;99.90;;;;;;4933413;28;20038;-92
2022/11/24 03:03:46;;;;;;;17.95;4.40;;;7.20;99.90;;;;;;4952444;28;20043;-93
2022/11/24 03:06:11;;;;;;;17.95;4.00;;;7.20;99.90;;;;;;4937541;28;20043;-92
2022/11/24 03:08:37;;;;;;;14.63;4.03;;;7.30;99.90;;;;;;4971950;28;20043;-93
2022/11/24 03:11:03;;;;;;;20.92;6.43;;;7.30;99.90;;;;;;4938646;28;20462;-93
2022/11/24 03:13:29;;;;;;;17.73;4.18;;;7.40;99.90;;;;;;4935118;28;20038;-94
2022/11/24 03:15:54;;;;;;;20.27;3.95;;;7.30;99.90;;;;;;4954473;28;20046;-93
2022/11/24 03:18:20;;;;;;;13.35;3.92;;;7.40;99.90;;;;;;4952688;28;20097;-93
2022/11/24 03:20:46;;;;;;;13.48;3.17;;;7.50;99.90;;;;;;4935721;28;20473;-93
2022/11/24 03:23:11;;;;;;;14.35;3.53;;;7.50;99.90;;;;;;4950401;28;20070;-94
2022/11/24 03:25:37;;;;;;;17.25;3.72;;;7.60;99.90;;;;;;4940877;28;20121;-92
2022/11/24 03:28:03;;;;;;;18.67;3.70;;;7.60;99.90;;;;;;4954460;28;20035;-93
2022/11/24 03:30:29;;;;;;;16.40;3.55;;;7.70;99.90;;;;;;4949597;28;20034;-92
2022/11/24 03:32:55;;;;;;;23.50;5.45;;;7.70;99.90;;;;;;4944805;28;20435;-94
2022/11/24 03:35:21;;;;;;;16.00;3.92;;;7.80;99.90;;;;;;4952373;28;20400;-94
2022/11/24 03:37:47;;;;;;;14.95;3.83;;;7.70;99.90;;;;;;4931098;28;20039;-92
2022/11/24 03:40:13;;;;;;;16.70;3.58;;;7.70;99.90;;;;;;4942308;28;20057;-93
2022/11/24 03:42:39;;;;;;;17.88;3.85;;;7.70;99.90;;;;;;4952255;28;20034;-92
2022/11/24 03:45:05;;;;;;;18.27;3.60;;;7.60;99.90;;;;;;4953690;28;20467;-93
2022/11/24 03:47:31;;;;;;;21.17;5.20;;;7.70;99.90;;;;;;4976337;28;20118;-92
2022/11/24 03:49:57;;;;;;;16.20;3.63;;;7.70;99.90;;;;;;4938219;29;20077;-91
2022/11/24 03:52:25;;;;;;;14.25;3.17;;;7.60;99.90;;;;;;4945713;28;20396;-92
2022/11/24 03:54:52;;;;;;;13.90;3.50;;;7.60;99.90;;;;;;4938252;28;20050;-94
2022/11/24 03:57:17;;;;;;;19.35;3.72;;;7.60;99.90;;;;;;4941516;28;20085;-92
2022/11/24 03:59:43;;;;;;;12.63;2.20;;;7.60;99.90;;;;;;4958108;28;20034;-93
2022/11/24 04:02:09;;;;;;;14.15;2.78;;;7.60;99.90;;;;;;4932831;28;20070;-92
2022/11/24 04:04:34;;;;;;;17.08;4.22;;;7.50;99.90;;;;;;4954211;28;20660;-92
2022/11/24 04:07:01;;;;;;;18.77;5.03;;;7.60;99.90;;;;;;4950401;28;20035;-93
2022/11/24 04:09:26;;;;;;;15.32;3.17;;;7.60;99.90;;;;;;4935629;28;20035;-92
2022/11/24 04:14:36;;;;;;;14.70;4.55;;;7.60;99.90;;;;;;4954733;28;20054;-92
2022/11/24 04:17:03;;;;;;;16.90;3.50;;;7.60;99.90;;;;;;4955106;28;20061;-93
2022/11/24 04:19:28;;;;;;;15.00;2.90;;;7.60;99.90;;;;;;4947536;28;20059;-92
2022/11/24 04:21:54;;;;;;;15.55;3.42;;;7.60;99.90;;;;;;4935074;28;20054;-92
2022/11/24 04:24:20;;;;;;;11.48;2.50;;;7.60;99.90;;;;;;4928432;28;20468;-92
2022/11/24 04:26:45;;;;;;;19.98;5.30;;;7.60;99.90;;;;;;4955569;28;20143;-92
2022/11/24 04:29:11;;;;;;;15.10;3.70;;;7.60;99.90;;;;;;4951341;28;20055;-93
2022/11/24 04:31:37;;;;;;;9.38;3.03;;;7.50;99.90;;;;;;4937727;28;20050;-92
2022/11/24 04:34:02;;;;;;;13.32;2.58;;;7.50;99.90;;;;;;4956528;28;20042;-93
2022/11/24 04:36:28;;;;;;;14.77;2.78;;;7.50;99.90;;;;;;4938029;28;20377;-93
2022/11/24 04:38:53;;;;;;;17.55;4.38;;;7.50;99.90;;;;;;4934271;28;20074;-93
2022/11/24 04:41:19;;;;;;;16.95;2.97;;;7.50;99.90;;;;;;4951020;28;20500;-92
2022/11/24 04:43:48;;;;;;;15.65;3.55;;;7.40;99.90;;;;;;4940010;28;20060;-93
2022/11/24 04:46:14;;;;;;;15.63;3.28;;;7.40;99.90;;;;;;4959387;28;20031;-92
2022/11/24 04:48:40;;;;;;;13.80;3.08;;;7.40;99.90;;;;;;4949914;28;20151;-92
2022/11/24 04:51:06;;;;;;;15.23;3.13;;;7.40;99.90;;;;;;4961881;28;20412;-92
2022/11/24 04:53:32;;;;;;;15.75;3.92;;;7.30;99.90;;;;;;4963941;28;20055;-93
2022/11/24 04:55:58;;;;;;;13.68;2.90;;;7.30;99.90;;;;;;4951990;28;20117;-91
2022/11/24 04:58:23;;;;;;;12.65;2.83;;;7.30;99.90;;;;;;4950603;28;20127;-92
2022/11/24 05:00:49;;;;;;;10.43;2.90;;;7.20;99.90;;;;;;4934912;28;20039;-91
2022/11/24 05:03:14;;;;;;;12.15;3.00;;;7.30;99.90;;;;;;4953439;28;20054;-92
2022/11/24 05:05:40;;;;;;;15.10;3.60;;;7.20;99.90;;;;;;4972251;28;20405;-91
2022/11/24 05:08:07;;;;;;;12.95;2.53;;;7.20;99.90;;;;;;4934537;28;20073;-92
2022/11/24 05:10:36;;;;;;;10.85;3.72;;;7.20;99.90;;;;;;4947893;28;20920;-92
2022/11/24 05:13:04;;;;;;;17.42;3.28;;;7.20;99.90;;;;;;4940556;28;20038;-92
2022/11/24 05:15:30;;;;;;;16.70;3.25;;;7.20;99.90;;;;;;4938263;28;20062;-91
2022/11/24 05:17:56;;;;;;;9.00;3.10;;;7.20;99.90;;;;;;4929738;28;20042;-92
2022/11/24 05:20:23;;;;;;;14.50;2.80;;;7.20;99.90;;;;;;4926373;28;20948;-93
2022/11/24 05:22:48;;;;;;;10.18;2.38;;;7.20;99.90;;;;;;4926973;29;20122;-93
2022/11/24 05:25:14;;;;;;;19.10;4.78;;;7.20;99.90;;;;;;4950457;28;20110;-92
2022/11/24 05:27:40;;;;;;;13.55;3.05;;;7.20;99.90;;;;;;4943277;28;20107;-92
2022/11/24 05:30:07;;;;;;;15.30;3.58;;;7.20;99.90;;;;;;4938134;28;20082;-93
2022/11/24 05:32:32;;;;;;;15.23;2.90;;;7.10;99.90;;;;;;4959354;28;20035;-94
2022/11/24 05:35:00;;;;;;;20.50;4.47;;;7.10;99.90;;;;;;4932637;28;20454;-92
2022/11/24 05:37:27;;;;;;;14.02;3.35;;;7.20;99.90;;;;;;4956580;28;20038;-93
2022/11/24 05:39:53;;;;;;;16.67;3.42;;;7.20;99.90;;;;;;4938658;28;20077;-92
2022/11/24 05:45:04;;;;;;;13.95;2.85;;;7.10;99.90;;;;;;4950002;28;20054;-92
2022/11/24 05:47:30;;;;;;;14.65;4.43;;;7.10;99.90;;;;;;4941113;28;20062;-92
2022/11/24 05:49:56;;;;;;;14.05;3.17;;;7.10;99.90;;;;;;4935119;28;20352;-91
2022/11/24 05:52:22;;;;;;;17.88;3.03;;;7.10;99.90;;;;;;4939584;28;20061;-92
2022/11/24 05:54:48;;;;;;;16.35;3.67;;;7.10;99.90;;;;;;4938682;28;20121;-91
2022/11/24 05:57:15;;;;;;;15.70;3.08;;;7.00;99.90;;;;;;4967100;28;20050;-91
2022/11/24 05:59:40;;;;;;;10.27;2.72;;;7.10;99.90;;;;;;4970214;28;20042;-91
2022/11/24 06:02:06;;;;;;;13.65;3.30;;;7.00;99.90;;;;;;4932037;28;20045;-92
2022/11/24 06:04:31;;;;;;;20.35;5.03;;;7.00;99.90;;;;;;4940005;28;20049;-92
2022/11/24 06:06:57;;;;;;;16.05;3.10;;;7.00;99.90;;;;;;4944804;28;20030;-92
2022/11/24 06:09:22;;;;;;;10.65;2.40;;;7.00;99.90;;;;;;4936578;28;20133;-91
2022/11/24 06:11:48;;;;;;;11.65;2.30;;;7.00;99.90;;;;;;4950732;28;20043;-92
2022/11/24 06:14:14;;;;;;;16.42;2.90;;;6.90;99.90;;;;;;4934008;28;20038;-92
2022/11/24 06:16:40;;;;;;;14.82;3.45;;;6.90;99.90;;;;;;4944493;28;20047;-92
2022/11/24 06:19:05;;;;;;;15.95;3.50;;;7.00;99.90;;;;;;4939112;28;20787;-92
2022/11/24 06:21:31;;;;;;;13.38;3.28;;;7.00;99.90;;;;;;4955194;28;20043;-93
2022/11/24 06:23:57;;;;;;;15.85;3.15;;;7.00;99.90;;;;;;4948512;28;20033;-91
2022/11/24 06:26:22;;;;;;;20.08;5.57;;;7.00;99.90;;;;;;4935478;28;20082;-92
2022/11/24 06:28:48;;;;;;;13.95;3.22;;;7.00;99.90;;;;;;4938751;28;20075;-92
2022/11/24 06:31:13;;;;;;;9.95;2.50;;;7.00;99.90;;;;;;4946228;28;20047;-93
2022/11/24 06:33:39;;;;;;;11.27;2.88;;;7.00;99.90;;;;;;4955102;28;20034;-93
2022/11/24 06:36:07;;;;;;;16.25;3.65;;;6.90;99.90;;;;;;4941992;28;20057;-92
2022/11/24 06:38:34;;;;;;;13.65;3.53;;;6.90;99.90;;;;;;4944076;28;20049;-92
2022/11/24 06:41:10;;;;;;;13.65;3.75;;;6.90;99.90;;;;;;4931620;28;20051;-92
2022/11/24 06:43:36;;;;;;;12.95;3.17;;;6.80;99.90;;;;;;4941841;28;20039;-91
2022/11/24 06:46:02;;;;;;;11.13;2.53;;;6.70;99.90;;;;;;4928903;28;20472;-92
2022/11/24 06:48:29;;;;;;;11.07;3.20;;;6.70;99.90;;;;;;4954043;28;20039;-92
2022/11/24 06:50:58;;;;;;;11.35;3.00;;;6.60;99.90;;;;;;4950603;28;20038;-92
2022/11/24 06:53:24;;;;;;;19.00;4.65;;;6.60;99.90;;;;;;4966045;28;20066;-90
2022/11/24 06:55:50;;;;;;;15.18;3.47;;;6.60;99.90;;;;;;4943029;28;20035;-92
2022/11/24 06:58:16;;;;;;;16.13;4.70;;;6.50;99.90;;;;;;4941541;28;20046;-93
2022/11/24 07:00:42;;;;;;;10.90;2.90;;;6.60;99.90;;;;;;4965300;28;20453;-92
2022/11/24 07:03:15;;;;;;;12.90;2.70;;;6.50;99.90;;;;;;4935209;28;20038;-92
2022/11/24 07:05:42;;;;;;;14.32;3.92;;;6.60;99.90;;;;;;4969323;28;20236;-93
2022/11/24 07:08:08;;;;;;;14.98;2.92;;;6.60;99.90;;;;;;4943301;28;20812;-92
2022/11/24 07:10:33;;;;;;;17.15;3.75;;;6.60;99.90;;;;;;4949244;28;20046;-91
2022/11/24 07:12:59;;;;;;;17.60;4.22;;;6.60;99.90;;;;;;4930378;28;20070;-93
2022/11/24 07:15:27;;;;;;;18.05;3.95;;;6.60;99.90;;;;;;4930948;28;20554;-92
2022/11/24 07:17:52;;;;;;;14.43;3.30;;;6.70;99.90;;;;;;4938529;28;20043;-92
2022/11/24 07:20:18;;;;;;;11.32;2.75;;;6.70;99.90;;;;;;4946253;28;20060;-92
2022/11/24 07:22:43;;;;;;;10.10;2.70;;;6.70;99.90;;;;;;4952034;28;20043;-92
2022/11/24 07:25:09;;;;;;;14.32;3.22;;;6.80;99.90;;;;;;4952233;28;20043;-92
2022/11/24 07:27:36;;;;;;;20.58;5.93;;;6.80;99.90;;;;;;4929235;28;20054;-92
2022/11/24 07:30:02;;;;;;;13.77;3.85;;;6.80;99.90;;;;;;4945913;28;20055;-92
2022/11/24 07:32:28;;;;;;;12.80;3.88;;;6.80;99.90;;;;;;4930040;28;20126;-92
2022/11/24 07:34:54;;;;;;;13.52;2.92;;;6.80;99.90;;;;;;4965947;28;20046;-93
2022/11/24 07:37:19;;;;;;;20.52;6.13;;;6.80;99.90;;;;;;4941642;28;20070;-92
2022/11/24 07:39:45;;;;;;;19.55;5.10;;;6.90;99.90;;;;;;4948524;28;20043;-91
2022/11/24 07:42:10;;;;;;;18.83;3.88;;;7.00;99.90;;;;;;4951860;28;20153;-92
2022/11/24 07:44:36;;;;;;;16.05;3.50;;;7.00;99.90;;;;;;4933062;29;20039;-92
2022/11/24 07:47:02;;;;;;;17.52;3.70;;;7.00;99.90;;;;;;4933641;28;20402;-91
2022/11/24 07:49:27;;;;;;;11.48;3.28;;;7.00;99.90;;;;;;4948617;28;20047;-92
2022/11/24 07:51:53;;;;;;;18.42;4.28;;;7.10;99.90;;;;;;4941063;28;20406;-94
2022/11/24 07:54:18;;;;;;;21.10;6.28;;;7.10;99.90;;;;;;4960870;28;20043;-92
2022/11/24 07:56:47;;;;;;;17.20;4.78;;;7.20;99.90;;;;;;4966226;28;20050;-94
2022/11/24 07:59:13;;;;;;;17.73;4.45;;;7.20;99.90;;;;;;4947621;28;20615;-94
2022/11/24 08:01:39;;;;;;;19.20;4.35;;;7.20;99.90;;;;;;4951687;28;20073;-94
2022/11/24 08:04:05;;;;;;;15.88;4.88;;;7.20;99.90;;;;;;4933236;28;20066;-94
2022/11/24 08:06:31;;;;;;;15.32;4.35;;;7.20;99.90;;;;;;4966957;28;20428;-94
2022/11/24 08:08:57;;;;;;;19.17;4.28;;;7.20;99.90;;;;;;4930837;28;20492;-89
2022/11/24 08:11:23;;;;;;;17.15;4.93;;;7.20;99.90;;;;;;4943275;28;20047;-89
2022/11/24 08:13:49;;;;;;;13.50;4.60;;;7.30;99.90;;;;;;4944023;28;20043;-86
2022/11/24 08:16:16;;;;;;;14.95;5.18;;;7.30;99.90;;;;;;4945460;28;20046;-87
2022/11/24 08:18:47;;;;;;;15.50;5.30;;;7.30;99.90;;;;;;4940903;28;20050;-85
2022/11/24 08:21:13;;;;;;;16.50;5.15;;;7.30;99.90;;;;;;4961707;28;20047;-85
2022/11/24 08:23:39;;;;;;;15.30;4.53;;;7.30;99.90;;;;;;4942988;28;20181;-86
2022/11/24 08:26:07;;;;;;;13.50;4.00;;;7.30;99.90;;;;;;4959546;28;20464;-93
2022/11/24 08:28:34;;;;;;;16.85;4.85;;;7.40;99.90;;;;;;4932472;28;20050;-88
2022/11/24 08:31:08;;;;;;;22.40;7.55;;;7.40;99.90;;;;;;4939759;28;20400;-87
2022/11/24 08:33:35;;;;;;;18.50;5.38;;;7.50;99.90;;;;;;4942587;28;20101;-87
2022/11/24 08:36:09;;;;;;;22.55;7.88;;;7.60;99.90;;;;;;4962194;28;20057;-88
2022/11/24 08:38:35;;;;;;;18.30;4.68;;;7.60;99.90;;;;;;4941360;28;20070;-90
2022/11/24 08:41:15;;;;;;;15.57;4.88;;;7.60;99.90;;;;;;4921927;28;20051;-92
2022/11/24 08:43:41;;;;;;;20.42;7.68;;;7.70;99.90;;;;;;4921772;28;20043;-90
2022/11/24 08:46:12;;;;;;;17.75;5.13;;;7.70;99.90;;;;;;4939186;28;20102;-92
2022/11/24 08:48:38;;;;;;;13.73;5.05;;;7.80;99.90;;;;;;4924604;28;20356;-86
2022/11/24 08:51:12;;;;;;;16.98;4.18;;;7.80;99.90;;;;;;4964050;28;20039;-84
2022/11/24 08:53:38;;;;;;;12.60;4.82;;;7.80;99.90;;;;;;4945478;28;20055;-86
2022/11/24 08:56:04;;;;;;;17.55;4.82;;;7.90;99.90;;;;;;4943458;28;20389;-86
2022/11/24 08:58:31;;;;;;;13.50;4.55;;;7.90;99.90;;;;;;4962759;28;20126;-85
2022/11/24 09:01:13;;;;;;;16.70;6.80;;;7.90;99.90;;;;;;4941545;28;20567;-86
2022/11/24 09:03:39;;;;;;;13.60;3.90;;;8.00;99.90;;;;;;4940875;28;20051;-86
2022/11/24 09:06:08;;;;;;;12.20;3.95;;;8.00;99.90;;;;;;4939000;28;20440;-85
2022/11/24 09:08:34;;;;;;;17.02;5.22;;;8.00;99.90;;;;;;4943482;28;20138;-86
2022/11/24 09:11:02;;;;;;;15.88;6.15;;;8.00;99.90;;;;;;4954232;28;20496;-86
2022/11/24 09:13:28;;;;;;;16.15;6.40;;;8.20;99.90;;;;;;4947744;28;20047;-86
2022/11/24 09:15:53;;;;;;;16.70;6.20;;;8.20;99.90;;;;;;4939994;28;20057;-86
2022/11/24 09:18:19;;;;;;;15.70;4.25;;;8.20;99.90;;;;;;4945570;28;20050;-86
2022/11/24 09:20:44;;;;;;;13.88;4.05;;;8.20;99.90;;;;;;4940489;28;20047;-87
2022/11/24 09:23:10;;;;;;;12.05;4.18;;;8.20;99.90;;;;;;4961589;28;20098;-88
2022/11/24 09:25:36;;;;;;;12.63;4.32;;;8.20;99.90;;;;;;4934083;29;20079;-88
2022/11/24 09:28:02;;;;;;;14.85;3.88;;;8.30;99.90;;;;;;4922661;29;20043;-87
2022/11/24 09:30:28;;;;;;;9.50;3.55;;;8.30;99.90;;;;;;4923209;29;20039;-86
2022/11/24 09:32:56;;;;;;;11.35;5.13;;;8.40;99.90;;;;;;4917298;29;20119;-90
2022/11/24 09:35:23;;;;;;;13.38;4.97;;;8.40;99.90;;;;;;4917513;29;20055;-85
2022/11/24 09:37:49;;;;;;;10.98;3.33;;;8.50;99.90;;;;;;4922720;29;20066;-85
2022/11/24 09:40:16;;;;;;;7.95;3.17;;;8.50;99.90;;;;;;4921449;29;20040;-84
2022/11/24 09:43:00;;;;;;;10.55;2.88;;;8.50;99.90;;;;;;4915070;29;20050;-85
2022/11/24 09:45:44;;;;;;;9.30;3.83;;;8.50;99.90;;;;;;4918136;29;20228;-84
2022/11/24 09:48:19;;;;;;;10.23;4.15;;;8.60;99.90;;;;;;4918616;29;20058;-85
2022/11/24 09:50:47;;;;;;;8.73;3.25;;;8.60;99.90;;;;;;4919371;29;20374;-85
2022/11/24 09:53:30;;;;;;;8.43;2.97;;;8.60;99.90;;;;;;4917723;29;20083;-84
2022/11/24 09:55:59;;;;;;;8.65;3.15;;;8.70;99.90;;;;;;4924930;29;20139;-85
2022/11/24 09:58:47;;;;;;;8.18;2.92;;;8.70;99.90;;;;;;4918557;29;20082;-85
2022/11/24 10:01:39;;;;;;;9.23;3.60;;;8.70;99.90;;;;;;4921806;29;20052;-86
2022/11/24 10:04:23;;;;;;;8.57;3.03;;;8.70;99.90;;;;;;4914284;29;20051;-85
2022/11/24 10:07:06;;;;;;;10.75;3.80;;;8.70;99.90;;;;;;4922556;29;20062;-84
2022/11/24 10:10:08;;;;;;;8.80;3.05;;;8.80;99.90;;;;;;4922081;29;20056;-86
2022/11/24 10:13:00;;;;;;;7.60;2.88;;;8.70;99.90;;;;;;4919752;29;20051;-86
2022/11/24 10:15:45;;;;;;;7.50;2.88;;;8.80;99.90;;;;;;4926932;29;20114;-86
2022/11/24 10:18:34;;;;;;;8.15;3.90;;;8.80;99.90;;;;;;4919243;29;20119;-86
2022/11/24 10:21:07;;;;;;;8.05;3.13;;;8.90;99.90;;;;;;4920907;29;20086;-86
2022/11/24 10:23:44;;;;;;;9.20;4.35;;;9.00;99.90;;;;;;4928245;29;20058;-86
2022/11/24 10:26:21;;;;;;;8.85;4.07;;;9.20;99.90;;;;;;4917484;29;20058;-87
2022/11/24 10:28:55;;;;;;;9.02;4.40;;;9.20;99.90;;;;;;4926981;29;20070;-86
2022/11/24 10:31:34;;;;;;;10.38;4.60;;;9.30;99.90;;;;;;4921299;29;20044;-86
2022/11/24 10:34:24;;;;;;;9.70;4.10;;;9.40;99.90;;;;;;4928236;29;20392;-86
2022/11/24 10:37:14;;;;;;;10.88;4.45;;;9.40;99.90;;;;;;4915234;29;21109;-85
2022/11/24 10:40:09;;;;;;;7.97;3.37;;;9.50;99.90;;;;;;4933160;29;20116;-86
2022/11/24 10:42:35;;;;;;;9.35;4.32;;;9.50;99.90;;;;;;4919252;29;20060;-86
2022/11/24 10:45:11;;;;;;;9.45;4.72;;;9.60;99.90;;;;;;4924528;29;20179;-87
2022/11/24 10:47:38;;;;;;;10.43;4.82;;;9.60;99.90;;;;;;4917263;29;20039;-86
2022/11/24 10:50:19;;;;;;;9.25;4.68;;;9.70;99.90;;;;;;4926726;29;20536;-86
2022/11/24 10:53:07;;;;;;;10.00;5.00;;;9.80;99.90;;;;;;4921231;29;20090;-87
2022/11/24 10:55:57;;;;;;;11.88;4.97;;;9.90;99.90;;;;;;4906359;29;20063;-86
2022/11/24 10:58:25;;;;;;;9.82;4.80;;;10.00;99.90;;;;;;4926072;29;20047;-86
2022/11/24 11:00:52;;;;;;;10.35;4.90;;;10.10;99.90;;;;;;4918776;29;20047;-85
2022/11/24 11:03:20;;;;;;;12.98;5.75;;;10.20;99.90;;;;;;4926929;29;20067;-86
2022/11/24 11:05:52;;;;;;;11.13;5.10;;;10.20;99.90;;;;;;4921727;29;20050;-85
2022/11/24 11:08:22;;;;;;;10.98;5.32;;;10.20;99.90;;;;;;4919626;29;20055;-86
2022/11/24 11:11:06;;;;;;;11.68;5.22;;;10.20;99.90;;;;;;4918472;29;20118;-86
2022/11/24 11:13:31;;;;;;;12.15;5.10;;;10.10;99.90;;;;;;4903084;29;20055;-85
2022/11/24 11:15:58;;;;;;;13.25;7.10;;;10.10;99.90;;;;;;4925648;29;20461;-84
2022/11/24 11:18:32;;;;;;;11.82;5.35;;;10.20;99.90;;;;;;4920833;29;20043;-84
2022/11/24 11:21:03;;;;;;;14.13;6.10;;;10.20;99.90;;;;;;4921417;29;20032;-85
2022/11/24 11:23:32;;;;;;;10.52;4.68;;;10.20;99.90;;;;;;4923482;29;20044;-84
2022/11/24 11:26:22;;;;;;;13.38;6.13;;;10.20;99.90;;;;;;4936603;29;20058;-84
2022/11/24 11:29:11;;;;;;;11.57;5.65;;;10.30;99.90;;;;;;4921244;29;20079;-84
2022/11/24 11:31:38;;;;;;;15.45;6.28;;;10.30;99.90;;;;;;4928797;29;20054;-84
2022/11/24 11:34:16;;;;;;;10.65;6.10;;;10.30;99.90;;;;;;4916277;29;20051;-85
2022/11/24 11:36:50;;;;;;;10.75;5.60;;;10.40;99.90;;;;;;4923067;29;20067;-84
2022/11/24 11:39:27;;;;;;;12.13;6.28;;;10.40;99.90;;;;;;4916892;29;20119;-83
2022/11/24 11:42:24;;;;;;;13.23;6.30;;;10.40;99.90;;;;;;4918090;29;20071;-84
2022/11/24 11:45:07;;;;;;;12.38;5.60;;;10.50;99.90;;;;;;4920115;29;20462;-83
2022/11/24 11:47:49;;;;;;;14.43;6.07;;;10.60;99.90;;;;;;4917193;29;20048;-83
2022/11/24 11:50:19;;;;;;;12.13;5.75;;;10.60;99.90;;;;;;4921260;29;20051;-84
2022/11/24 11:53:03;;;;;;;12.88;6.15;;;10.60;99.90;;;;;;4924031;29;20426;-83
2022/11/24 11:56:13;;;;;;;14.05;5.97;;;10.70;99.90;;;;;;4928578;29;20042;-82
2022/11/24 11:58:57;;;;;;;12.68;6.50;;;10.70;99.90;;;;;;4873509;29;20057;-83
2022/11/24 12:01:32;;;;;;;14.05;6.25;;;10.60;99.90;;;;;;4865577;29;20148;-83
2022/11/24 12:04:14;;;;;;;16.42;6.60;;;10.60;99.90;;;;;;4864493;29;20040;-84
2022/11/24 12:06:49;;;;;;;14.65;6.10;;;10.70;99.90;;;;;;4880031;29;20064;-84
2022/11/24 12:09:36;;;;;;;13.52;6.45;;;10.70;99.90;;;;;;4884755;29;20049;-84
2022/11/24 12:12:04;;;;;;;15.38;6.70;;;10.70;99.90;;;;;;4861891;29;20183;-84
2022/11/24 12:14:41;;;;;;;12.40;6.45;;;10.60;99.90;;;;;;4884014;29;20041;-84
2022/11/24 12:17:20;;;;;;;12.02;6.20;;;10.70;99.90;;;;;;4862560;29;20057;-84
2022/11/24 12:20:04;;;;;;;12.13;5.72;;;10.70;99.90;;;;;;4859996;29;20180;-84
2022/11/24 12:22:35;;;;;;;12.82;5.45;;;10.70;99.90;;;;;;4891613;29;20040;-84
2022/11/24 12:25:17;;;;;;;13.77;5.20;;;10.80;99.90;;;;;;4869059;29;20386;-84
2022/11/24 12:27:49;;;;;;;12.70;4.80;;;10.80;99.90;;;;;;4908571;29;20058;-83
2022/11/24 12:30:20;;;;;;;15.45;5.10;;;10.80;99.90;;;;;;4916419;29;20536;-84
2022/11/24 12:33:24;;;;;;;;;;;10.90;99.90;;;;;;4927172;28;20063;-83
2022/11/24 12:36:06;;;;;;;13.13;4.60;;;10.80;99.90;;;;;;4919308;29;20371;-84
2022/11/24 12:39:06;;;;;;;15.48;4.85;;;10.90;99.90;;;;;;4915917;29;20078;-83
2022/11/24 12:41:58;;;;;;;15.70;5.55;;;10.80;99.90;;;;;;4880293;29;20060;-84
2022/11/24 12:45:13;;;;;;;13.98;5.43;;;10.80;99.90;;;;;;4865377;29;20432;-84
2022/11/24 12:48:17;;;;;;;14.85;5.10;;;10.90;99.90;;;;;;4841630;29;20186;-84
2022/11/24 12:50:44;;;;;;;14.45;5.40;;;11.00;99.90;;;;;;4818639;29;20050;-83
2022/11/24 12:53:30;;;;;;;14.20;5.90;;;11.00;99.90;;;;;;4832971;29;20057;-83
2022/11/24 12:56:04;;;;;;;15.05;6.05;;;11.00;99.90;;;;;;4833882;29;20049;-83
2022/11/24 12:58:49;;;;;;;14.57;6.25;;;11.00;99.90;;;;;;4833061;29;20074;-84
2022/11/24 13:01:20;;;;;;;13.80;5.50;;;11.10;99.90;;;;;;4832200;29;20073;-83
2022/11/24 13:04:04;;;;;;;14.80;6.10;;;11.10;99.90;;;;;;4818344;29;20060;-83
2022/11/24 13:06:48;;;;;;;16.15;6.22;;;11.10;99.90;;;;;;4824811;29;20084;-83